Aeroporto :
LOGIN :

Iscrizione | Disclaimer

   EN    FR    IT 

 










Sommario :    VFR   VFR Marginale   IFR   IFR Intensivo   IFR Molto Intensivo
Visibilità : 
Base nubi : 
>= 8 km
>= 3000ft
5 / 8 km
1000 / 3000 ft
1500m / 5 km
500 / 1000 ft
800 / 1500m
200 / 500 ft
< 800m
< 200 ft
Simboli :   Temporali  Nebbia  Neve Forte  Precipitazioni Forti  Vento > 20 kt
SIGMETs :   Varie  Temporali  Ghiacco  Turbolenza  Onda orograficha  Ceneri Vulcaniche







- Altitudine del aeroporto : 327 ft
- Codice IATA : BHX
- Carte del aeroporto


EGBB - Birmingham

ULTIMO METAR :
  • 190220Z 30003KT CAVOK 12/09 Q1031

METARs OBSOLETI :
  • 190150Z VRB02KT CAVOK 13/09 Q1031
  • 190120Z 33002KT CAVOK 13/09 Q1031
  • 190050Z 33004KT CAVOK 14/09 Q1031
  • 190020Z 33004KT CAVOK 14/09 Q1031
  • 182350Z 35005KT CAVOK 14/09 Q1031

TAF TAF EGBB
Valido dal 19 a 00 ore il 20 a 00 ore UTC


182254Z 1900/1924 34005KT 9999 FEW040
TEMPO 1902/1910 6000
PROB30 1905/1908 2000 BR
PROB30 1920/1924 8000
ATIS : +44 121 780 0910
Nessun NOTAM noto per questo aeroporto.



MetMap, La meteo Aeronautica in un colpo d'occhio ! - Copyright ORBIFLY Dicembre 2007 - Disclaimer

ORBIFLY MET'MAP TEAM :

Programmazione e sviluppo : Alexandra Zaïnal
Concezione e sviluppo : Baudouin d'Aumeries
Co-Programmazione e sviluppo : Marc-Olivier Méhu
Supporto tecnico e logistico : Manuel Goepfert
Aiuto per la traduzione : Arnaldo La Scala

Contatto : metmap@orbifly.com




FONTI E CREDITI :

   NOAA